createdAt,value
2018-09-29T00:01:38.124Z,11.20
2018-09-29T00:04:12.977Z,11.20
2018-09-29T00:06:47.743Z,11.10
2018-09-29T00:09:22.576Z,11.20
2018-09-29T00:11:57.579Z,11.10
2018-09-29T00:14:32.922Z,11.10
2018-09-29T00:17:09.309Z,11.00
2018-09-29T00:19:45.248Z,10.90
2018-09-29T00:22:28.532Z,10.90
2018-09-29T00:28:31.749Z,10.90
2018-09-29T00:31:06.390Z,10.90
2018-09-29T00:33:40.795Z,10.90
2018-09-29T00:36:15.452Z,10.90
2018-09-29T00:38:50.039Z,10.90
2018-09-29T00:41:24.534Z,11.00
2018-09-29T00:43:59.275Z,11.00
2018-09-29T00:46:33.596Z,11.00
2018-09-29T00:49:08.539Z,11.00
2018-09-29T00:51:42.982Z,11.00
2018-09-29T00:54:17.616Z,11.10
2018-09-29T00:56:51.993Z,11.10
2018-09-29T00:59:26.419Z,11.10
2018-09-29T01:02:00.863Z,11.10
2018-09-29T01:04:35.349Z,11.10
2018-09-29T01:07:09.857Z,11.10
2018-09-29T01:09:44.316Z,11.00
2018-09-29T01:12:18.916Z,11.10
2018-09-29T01:14:53.533Z,11.10
2018-09-29T01:17:27.937Z,11.10
2018-09-29T01:20:02.575Z,11.10
2018-09-29T01:22:37.509Z,11.10
2018-09-29T01:25:11.983Z,11.10
2018-09-29T01:27:46.326Z,11.00
2018-09-29T01:30:20.838Z,11.10
2018-09-29T01:32:55.334Z,11.10
2018-09-29T01:35:30.065Z,11.10
2018-09-29T01:38:04.613Z,11.00
2018-09-29T01:40:39.232Z,11.00
2018-09-29T01:43:13.904Z,10.90
2018-09-29T01:45:48.616Z,10.80
2018-09-29T01:48:23.282Z,10.60
2018-09-29T01:50:57.713Z,10.50
2018-09-29T01:53:32.166Z,10.30
2018-09-29T01:56:06.908Z,10.10
2018-09-29T01:58:41.593Z,10.10
2018-09-29T02:01:16.342Z,9.90
2018-09-29T02:03:50.814Z,9.70
2018-09-29T02:06:27.097Z,9.50
2018-09-29T02:09:01.579Z,9.20
2018-09-29T02:11:36.024Z,9.10
2018-09-29T02:14:10.851Z,9.00
2018-09-29T02:16:45.459Z,8.80
2018-09-29T02:19:20.042Z,8.70
2018-09-29T02:21:54.736Z,8.60
2018-09-29T02:24:29.116Z,8.50
2018-09-29T02:27:03.551Z,8.30
2018-09-29T02:29:38.144Z,8.30
2018-09-29T02:32:12.659Z,8.20
2018-09-29T02:34:47.241Z,8.10
2018-09-29T02:37:22.274Z,8.10
2018-09-29T02:39:56.830Z,8.10
2018-09-29T02:42:31.265Z,8.10
2018-09-29T02:45:05.738Z,8.00
2018-09-29T02:47:40.276Z,7.90
2018-09-29T02:50:15.477Z,7.80
2018-09-29T02:52:50.210Z,7.70
2018-09-29T02:55:24.640Z,7.60
2018-09-29T02:57:59.136Z,7.50
2018-09-29T03:00:33.578Z,7.40
2018-09-29T03:03:07.963Z,7.40
2018-09-29T03:05:42.610Z,7.40
2018-09-29T03:08:17.213Z,7.30
2018-09-29T03:10:51.839Z,7.30
2018-09-29T03:13:26.341Z,7.30
2018-09-29T03:16:01.142Z,7.30
2018-09-29T03:18:35.782Z,7.20
2018-09-29T03:21:10.018Z,7.20
2018-09-29T03:23:44.582Z,7.10
2018-09-29T03:26:19.071Z,6.90
2018-09-29T03:28:53.864Z,6.90
2018-09-29T03:31:28.493Z,6.90
2018-09-29T03:34:03.113Z,6.80
2018-09-29T03:36:37.770Z,6.80
2018-09-29T03:39:12.925Z,6.70
2018-09-29T03:41:47.561Z,6.80
2018-09-29T03:44:22.170Z,6.80
2018-09-29T03:46:56.495Z,6.80
2018-09-29T03:49:31.556Z,6.70
2018-09-29T03:52:06.078Z,6.60
2018-09-29T03:54:40.631Z,6.70
2018-09-29T03:57:15.218Z,6.60
2018-09-29T03:59:49.645Z,6.60
2018-09-29T04:02:24.204Z,6.60
2018-09-29T04:04:58.573Z,6.60
2018-09-29T04:07:32.871Z,6.60
2018-09-29T04:10:07.529Z,6.60
2018-09-29T04:12:42.143Z,6.50
2018-09-29T04:15:16.667Z,6.40
2018-09-29T04:17:51.406Z,6.50
2018-09-29T04:20:25.969Z,6.50
2018-09-29T04:23:00.891Z,6.40
2018-09-29T04:25:35.288Z,6.40
2018-09-29T04:28:09.799Z,6.30
2018-09-29T04:30:44.268Z,6.30
2018-09-29T04:33:18.995Z,6.20
2018-09-29T04:35:53.673Z,6.20
2018-09-29T04:38:28.050Z,6.10
2018-09-29T04:41:02.519Z,6.00
2018-09-29T04:43:37.362Z,5.80
2018-09-29T04:46:11.995Z,5.80
2018-09-29T04:48:46.420Z,5.80
2018-09-29T04:51:20.842Z,5.70
2018-09-29T04:53:55.353Z,5.60
2018-09-29T04:56:30.236Z,5.60
2018-09-29T04:59:04.836Z,5.60
2018-09-29T05:01:39.442Z,5.60
2018-09-29T05:04:13.931Z,5.50
2018-09-29T05:06:48.622Z,5.50
2018-09-29T05:09:22.989Z,5.50
2018-09-29T05:11:57.636Z,5.60
2018-09-29T05:14:31.927Z,5.60
2018-09-29T05:17:06.659Z,5.60
2018-09-29T05:19:41.087Z,5.70
2018-09-29T05:22:15.498Z,5.70
2018-09-29T05:24:50.135Z,5.70
2018-09-29T05:27:24.700Z,5.70
2018-09-29T05:29:59.177Z,5.70
2018-09-29T05:32:33.716Z,5.70
2018-09-29T05:35:08.241Z,5.70
2018-09-29T05:37:42.858Z,5.70
2018-09-29T05:40:17.566Z,5.70
2018-09-29T05:42:52.160Z,5.70
2018-09-29T05:45:26.635Z,5.70
2018-09-29T05:48:01.157Z,5.80
2018-09-29T05:50:35.580Z,5.80
2018-09-29T05:53:10.084Z,6.10
2018-09-29T05:55:44.480Z,6.10
2018-09-29T05:58:18.931Z,6.20
2018-09-29T06:00:53.395Z,6.20
2018-09-29T06:03:28.106Z,6.40
2018-09-29T06:06:02.708Z,6.50
2018-09-29T06:08:37.532Z,6.60
2018-09-29T06:11:12.079Z,6.60
2018-09-29T06:13:46.671Z,6.70
2018-09-29T06:16:21.110Z,6.80
2018-09-29T06:18:55.621Z,6.90
2018-09-29T06:21:30.010Z,7.00
2018-09-29T06:24:04.492Z,7.10
2018-09-29T06:26:38.927Z,7.10
2018-09-29T06:29:13.267Z,7.20
2018-09-29T06:31:48.024Z,7.30
2018-09-29T06:34:22.654Z,7.40
2018-09-29T06:36:57.282Z,7.60
2018-09-29T06:39:31.677Z,7.70
2018-09-29T06:42:06.220Z,7.80
2018-09-29T06:44:40.939Z,7.90
2018-09-29T06:47:15.717Z,7.90
2018-09-29T06:49:50.528Z,8.00
2018-09-29T06:52:25.137Z,8.10
2018-09-29T06:54:59.605Z,8.30
2018-09-29T06:57:34.073Z,8.30
2018-09-29T07:00:09.331Z,8.50
2018-09-29T07:02:43.603Z,8.60
2018-09-29T07:05:18.146Z,8.70
2018-09-29T07:07:53.164Z,8.90
2018-09-29T07:10:35.147Z,9.10
2018-09-29T07:13:14.577Z,9.20
2018-09-29T07:15:54.662Z,9.40
2018-09-29T07:18:29.863Z,9.40
2018-09-29T07:21:09.263Z,9.60
2018-09-29T07:23:44.933Z,9.80
2018-09-29T07:26:23.543Z,10.00
2018-09-29T07:28:59.973Z,10.10
2018-09-29T07:31:35.028Z,10.40
2018-09-29T07:34:10.068Z,10.80
2018-09-29T07:36:46.479Z,11.10
2018-09-29T07:39:22.969Z,11.50
2018-09-29T07:41:57.296Z,11.90
2018-09-29T07:44:34.209Z,12.30
2018-09-29T07:47:12.876Z,12.50
2018-09-29T07:49:53.933Z,12.90
2018-09-29T07:52:31.910Z,13.10
2018-09-29T07:55:13.747Z,13.70
2018-09-29T07:57:58.161Z,13.80
2018-09-29T08:00:39.173Z,13.90
2018-09-29T08:03:19.221Z,14.20
2018-09-29T08:05:58.025Z,14.00
2018-09-29T08:08:36.697Z,14.20
2018-09-29T08:11:15.813Z,14.20
2018-09-29T08:13:50.826Z,14.20
2018-09-29T08:16:30.275Z,14.60
2018-09-29T08:19:13.235Z,14.90
2018-09-29T08:21:58.738Z,14.90
2018-09-29T08:24:40.363Z,15.20
2018-09-29T08:27:29.012Z,15.10
2018-09-29T08:30:07.466Z,15.50
2018-09-29T08:32:42.097Z,15.80
2018-09-29T08:35:39.296Z,15.70
2018-09-29T08:38:21.852Z,15.90
2018-09-29T08:41:09.132Z,16.20
2018-09-29T08:43:49.684Z,16.10
2018-09-29T08:46:28.845Z,16.30
2018-09-29T08:49:15.310Z,16.00
2018-09-29T08:51:54.519Z,16.00
2018-09-29T08:54:47.685Z,16.30
2018-09-29T08:57:30.852Z,16.50
2018-09-29T09:00:15.682Z,15.80
2018-09-29T09:03:03.549Z,15.60
2018-09-29T09:08:35.344Z,16.50
2018-09-29T09:11:15.872Z,17.20
2018-09-29T09:13:57.380Z,17.50
2018-09-29T09:16:38.043Z,17.70
2018-09-29T09:19:13.307Z,17.80
2018-09-29T09:21:53.264Z,18.00
2018-09-29T09:27:32.963Z,18.00
2018-09-29T09:30:10.973Z,17.80
2018-09-29T09:32:50.251Z,17.70
2018-09-29T09:35:31.533Z,18.30
2018-09-29T09:38:15.446Z,18.70
2018-09-29T09:40:51.873Z,18.30
2018-09-29T09:43:39.933Z,18.20
2018-09-29T09:46:14.891Z,18.40
2018-09-29T09:48:56.907Z,18.50
2018-09-29T09:51:36.959Z,18.50
2018-09-29T09:54:17.886Z,18.20
2018-09-29T09:57:02.348Z,18.40
2018-09-29T09:59:40.789Z,17.90
2018-09-29T10:02:24.453Z,18.30
2018-09-29T10:05:07.710Z,18.60
2018-09-29T10:07:43.517Z,19.10
2018-09-29T10:10:37.058Z,19.40
2018-09-29T10:16:59.297Z,19.20
2018-09-29T10:19:43.688Z,19.60
2018-09-29T10:22:19.522Z,18.90
2018-09-29T10:24:55.118Z,18.20
2018-09-29T10:27:31.394Z,18.30
2018-09-29T10:30:08.345Z,18.00
2018-09-29T10:32:43.533Z,18.50
2018-09-29T10:35:19.269Z,18.60
2018-09-29T10:37:53.935Z,18.60
2018-09-29T10:40:28.601Z,18.80
2018-09-29T10:43:03.351Z,19.30
2018-09-29T10:45:39.099Z,19.10
2018-09-29T10:48:13.762Z,19.30
2018-09-29T10:50:48.644Z,19.80
2018-09-29T10:53:23.648Z,20.10
2018-09-29T10:55:58.797Z,20.40
2018-09-29T10:58:33.701Z,20.00
2018-09-29T11:01:09.523Z,20.20
2018-09-29T11:03:44.325Z,20.70
2018-09-29T11:06:18.696Z,20.90
2018-09-29T11:08:53.785Z,21.00
2018-09-29T11:11:31.549Z,20.60
2018-09-29T11:14:06.396Z,21.00
2018-09-29T11:16:41.524Z,20.70
2018-09-29T11:19:16.901Z,19.80
2018-09-29T11:21:55.501Z,19.40
2018-09-29T11:24:30.315Z,20.00
2018-09-29T11:27:05.375Z,19.60
2018-09-29T11:29:41.491Z,19.60
2018-09-29T11:32:16.120Z,20.10
2018-09-29T11:34:51.256Z,20.10
2018-09-29T11:37:26.387Z,19.60
2018-09-29T11:40:01.147Z,19.60
2018-09-29T11:42:36.173Z,19.50
2018-09-29T11:45:11.249Z,19.70
2018-09-29T11:47:47.425Z,19.60
2018-09-29T11:50:22.252Z,20.10
2018-09-29T11:52:57.020Z,20.50
2018-09-29T11:55:35.684Z,21.00
2018-09-29T11:58:10.912Z,21.30
2018-09-29T12:00:45.476Z,21.10
2018-09-29T12:03:21.180Z,20.50
2018-09-29T12:05:56.016Z,20.90
2018-09-29T12:08:30.710Z,20.70
2018-09-29T12:11:10.198Z,20.50
2018-09-29T12:13:44.939Z,20.30
2018-09-29T12:16:19.837Z,20.60
2018-09-29T12:18:55.004Z,20.70
2018-09-29T12:21:30.079Z,20.60
2018-09-29T12:24:05.015Z,21.10
2018-09-29T12:26:39.707Z,21.20
2018-09-29T12:29:14.492Z,20.80
2018-09-29T12:31:49.340Z,20.90
2018-09-29T12:34:23.989Z,21.30
2018-09-29T12:36:59.005Z,21.30
2018-09-29T12:39:33.802Z,21.00
2018-09-29T12:42:10.945Z,20.80
2018-09-29T12:44:45.949Z,21.00
2018-09-29T12:47:20.985Z,20.90
2018-09-29T12:49:55.975Z,21.00
2018-09-29T12:52:30.538Z,21.20
2018-09-29T12:55:06.191Z,21.30
2018-09-29T12:57:41.026Z,21.10
2018-09-29T13:00:15.849Z,20.50
2018-09-29T13:02:50.775Z,20.80
2018-09-29T13:05:25.554Z,20.80
2018-09-29T13:08:01.901Z,21.60
2018-09-29T13:10:36.885Z,21.90
2018-09-29T13:13:11.759Z,22.20
2018-09-29T13:15:47.888Z,22.20
2018-09-29T13:18:22.664Z,21.60
2018-09-29T13:20:57.460Z,21.00
2018-09-29T13:23:32.162Z,20.70
2018-09-29T13:26:07.092Z,20.60
2018-09-29T13:28:41.978Z,20.50
2018-09-29T13:31:18.907Z,20.90
2018-09-29T13:33:53.917Z,21.50
2018-09-29T13:36:28.814Z,21.70
2018-09-29T13:39:03.543Z,21.60
2018-09-29T13:41:38.595Z,22.20
2018-09-29T13:44:13.576Z,21.70
2018-09-29T13:46:48.545Z,21.20
2018-09-29T13:49:23.308Z,21.30
2018-09-29T13:51:57.897Z,21.10
2018-09-29T13:54:33.065Z,21.50
2018-09-29T13:57:07.496Z,21.40
2018-09-29T13:59:48.243Z,21.80
2018-09-29T14:02:24.256Z,21.90
2018-09-29T14:04:59.976Z,22.00
2018-09-29T14:07:35.572Z,22.10
2018-09-29T14:10:10.672Z,23.30
2018-09-29T14:12:47.483Z,23.30
2018-09-29T14:15:23.617Z,22.90
2018-09-29T14:17:59.140Z,22.70
2018-09-29T14:20:34.884Z,23.10
2018-09-29T14:23:10.140Z,23.40
2018-09-29T14:25:45.756Z,23.10
2018-09-29T14:28:21.305Z,23.00
2018-09-29T14:30:56.661Z,23.40
2018-09-29T14:33:34.242Z,23.50
2018-09-29T14:36:09.454Z,23.50
2018-09-29T14:38:44.429Z,23.30
2018-09-29T14:41:20.093Z,22.60
2018-09-29T14:43:55.533Z,22.50
2018-09-29T14:46:30.772Z,22.80
2018-09-29T14:49:06.189Z,22.90
2018-09-29T14:51:43.858Z,22.50
2018-09-29T14:54:19.774Z,22.90
2018-09-29T14:56:55.305Z,22.70
2018-09-29T14:59:35.043Z,23.30
2018-09-29T15:02:10.287Z,23.00
2018-09-29T15:04:46.032Z,23.20
2018-09-29T15:07:21.883Z,23.80
2018-09-29T15:09:56.948Z,24.10
2018-09-29T15:12:33.270Z,24.60
2018-09-29T15:15:08.516Z,25.10
2018-09-29T15:17:43.734Z,25.80
2018-09-29T15:20:19.318Z,25.00
2018-09-29T15:22:54.676Z,24.00
2018-09-29T15:25:29.807Z,23.00
2018-09-29T15:28:12.049Z,22.60
2018-09-29T15:30:47.511Z,22.40
2018-09-29T15:33:23.039Z,22.10
2018-09-29T15:35:58.233Z,22.30
2018-09-29T15:38:33.160Z,21.50
2018-09-29T15:41:08.124Z,21.50
2018-09-29T15:43:43.128Z,21.60
2018-09-29T15:46:20.770Z,22.20
2018-09-29T15:48:56.160Z,22.10
2018-09-29T15:51:31.497Z,22.00
2018-09-29T15:54:14.992Z,21.90
2018-09-29T15:56:51.604Z,21.70
2018-09-29T15:59:38.730Z,21.40
2018-09-29T16:02:16.364Z,22.00
2018-09-29T16:04:52.166Z,21.50
2018-09-29T16:07:28.088Z,21.90
2018-09-29T16:10:03.346Z,21.90
2018-09-29T16:12:38.563Z,21.80
2018-09-29T16:15:14.342Z,21.90
2018-09-29T16:17:50.203Z,21.40
2018-09-29T16:20:25.819Z,20.90
2018-09-29T16:23:02.936Z,21.20
2018-09-29T16:25:38.139Z,21.00
2018-09-29T16:28:13.860Z,20.90
2018-09-29T16:30:53.858Z,20.20
2018-09-29T16:33:29.509Z,19.90
2018-09-29T16:36:04.809Z,19.70
2018-09-29T16:38:39.900Z,19.60
2018-09-29T16:41:15.300Z,19.00
2018-09-29T16:43:51.310Z,18.80
2018-09-29T16:46:26.925Z,18.50
2018-09-29T16:49:01.933Z,18.10
2018-09-29T16:54:49.784Z,17.30
2018-09-29T16:57:25.153Z,16.70
2018-09-29T17:00:00.610Z,16.40
2018-09-29T17:02:36.682Z,16.00
2018-09-29T17:05:11.616Z,15.70
2018-09-29T17:07:46.871Z,15.40
2018-09-29T17:10:22.041Z,15.20
2018-09-29T17:12:57.290Z,14.90
2018-09-29T17:15:33.448Z,14.60
2018-09-29T17:18:09.124Z,14.40
2018-09-29T17:20:44.686Z,14.30
2018-09-29T17:23:25.031Z,14.10
2018-09-29T17:26:00.234Z,13.90
2018-09-29T17:28:38.523Z,13.70
2018-09-29T17:31:14.866Z,13.50
2018-09-29T17:33:50.127Z,13.30
2018-09-29T17:36:25.580Z,13.10
2018-09-29T17:39:09.377Z,12.90
2018-09-29T17:41:44.400Z,12.70
2018-09-29T17:44:19.989Z,12.50
2018-09-29T17:46:57.208Z,12.40
2018-09-29T17:49:33.238Z,12.20
2018-09-29T17:52:08.569Z,12.10
2018-09-29T17:54:43.992Z,12.00
2018-09-29T17:57:21.219Z,11.90
2018-09-29T18:00:03.104Z,11.70
2018-09-29T18:02:57.205Z,11.60
2018-09-29T18:06:08.077Z,11.50
2018-09-29T18:09:16.673Z,11.40
2018-09-29T18:12:23.802Z,11.30
2018-09-29T18:15:10.671Z,11.20
2018-09-29T18:17:47.820Z,11.10
2018-09-29T18:20:22.659Z,11.00
2018-09-29T18:22:57.013Z,10.90
2018-09-29T18:25:32.705Z,10.80
2018-09-29T18:28:08.660Z,10.80
2018-09-29T18:33:24.395Z,10.80
2018-09-29T18:35:59.450Z,10.70
2018-09-29T18:38:34.843Z,10.70
2018-09-29T18:41:18.369Z,10.60
2018-09-29T18:43:53.773Z,10.50
2018-09-29T18:46:29.543Z,10.30
2018-09-29T18:49:05.218Z,10.10
2018-09-29T18:51:40.200Z,10.00
2018-09-29T18:54:16.122Z,9.80
2018-09-29T18:57:00.202Z,9.70
2018-09-29T18:59:35.217Z,9.60
2018-09-29T19:02:10.429Z,9.40
2018-09-29T19:04:45.723Z,9.20
2018-09-29T19:07:20.793Z,9.20
2018-09-29T19:10:02.607Z,9.20
2018-09-29T19:12:38.493Z,9.10
2018-09-29T19:15:14.220Z,9.00
2018-09-29T19:17:49.777Z,8.90
2018-09-29T19:20:25.057Z,8.80
2018-09-29T19:23:02.297Z,8.70
2018-09-29T19:25:37.856Z,8.60
2018-09-29T19:28:14.005Z,8.50
2018-09-29T19:30:49.392Z,8.50
2018-09-29T19:36:03.253Z,8.20
2018-09-29T19:38:54.551Z,8.10
2018-09-29T19:41:49.276Z,8.10
2018-09-29T19:44:26.130Z,8.00
2018-09-29T19:47:04.023Z,7.90
2018-09-29T19:49:40.455Z,7.80
2018-09-29T19:52:16.027Z,7.80
2018-09-29T19:54:53.686Z,7.80
2018-09-29T19:57:29.817Z,7.70
2018-09-29T20:00:05.642Z,7.70
2018-09-29T20:02:48.896Z,7.60
2018-09-29T20:05:23.973Z,7.60
2018-09-29T20:08:00.046Z,7.40
2018-09-29T20:10:35.679Z,7.30
2018-09-29T20:13:14.800Z,7.20
2018-09-29T20:15:50.992Z,7.20
2018-09-29T20:18:26.538Z,7.20
2018-09-29T20:21:16.812Z,7.10
2018-09-29T20:23:52.384Z,7.10
2018-09-29T20:26:28.303Z,7.00
2018-09-29T20:31:43.740Z,6.90
2018-09-29T20:34:19.431Z,6.80
2018-09-29T20:36:54.692Z,6.60
2018-09-29T20:39:29.881Z,6.60
2018-09-29T20:42:17.085Z,6.50
2018-09-29T20:44:52.943Z,6.50
2018-09-29T20:47:30.216Z,6.50
2018-09-29T20:50:09.319Z,6.50
2018-09-29T20:52:45.145Z,6.40
2018-09-29T20:55:20.966Z,6.30
2018-09-29T20:57:57.793Z,6.20
2018-09-29T21:00:33.713Z,6.20
2018-09-29T21:03:09.627Z,6.10
2018-09-29T21:05:47.442Z,6.00
2018-09-29T21:08:23.093Z,5.90
2018-09-29T21:11:00.724Z,5.90
2018-09-29T21:16:20.031Z,5.80
2018-09-29T21:18:56.081Z,5.80
2018-09-29T21:21:32.928Z,5.70
2018-09-29T21:24:09.295Z,5.60
2018-09-29T21:26:45.191Z,5.50
2018-09-29T21:29:20.508Z,5.60
2018-09-29T21:32:00.257Z,5.60
2018-09-29T21:34:35.418Z,5.60
2018-09-29T21:37:11.252Z,5.60
2018-09-29T21:39:46.895Z,5.50
2018-09-29T21:42:28.292Z,5.40
2018-09-29T21:45:05.698Z,5.30
2018-09-29T21:50:18.943Z,5.20
2018-09-29T21:52:53.279Z,5.30
2018-09-29T21:55:29.120Z,5.30
2018-09-29T21:58:15.468Z,5.20
2018-09-29T22:00:54.835Z,5.10
2018-09-29T22:03:30.804Z,5.00
2018-09-29T22:06:07.951Z,4.90
2018-09-29T22:08:44.022Z,4.80
2018-09-29T22:11:19.214Z,4.80
2018-09-29T22:13:57.314Z,4.80
2018-09-29T22:16:32.806Z,4.80
2018-09-29T22:19:08.251Z,4.70
2018-09-29T22:21:56.104Z,4.70
2018-09-29T22:27:12.004Z,4.50
2018-09-29T22:29:47.585Z,4.50
2018-09-29T22:32:26.047Z,4.40
2018-09-29T22:35:01.341Z,4.40
2018-09-29T22:37:38.524Z,4.30
2018-09-29T22:40:15.274Z,4.40
2018-09-29T22:42:51.043Z,4.50
2018-09-29T22:45:26.214Z,4.40
2018-09-29T22:48:03.198Z,4.40
2018-09-29T22:50:46.963Z,4.30
2018-09-29T22:53:22.456Z,4.30
2018-09-29T22:55:59.794Z,4.20
2018-09-29T22:58:35.694Z,4.10
2018-09-29T23:01:10.046Z,4.00
2018-09-29T23:03:45.904Z,4.00
2018-09-29T23:06:21.179Z,4.00
2018-09-29T23:08:56.446Z,4.00
2018-09-29T23:11:32.967Z,4.10
2018-09-29T23:14:20.861Z,4.00
2018-09-29T23:16:56.103Z,3.90
2018-09-29T23:19:31.955Z,4.00
2018-09-29T23:22:07.862Z,4.00
2018-09-29T23:24:43.586Z,3.90
2018-09-29T23:27:19.138Z,3.90
2018-09-29T23:29:55.127Z,3.80
2018-09-29T23:32:31.420Z,3.80
2018-09-29T23:35:12.817Z,3.80
2018-09-29T23:37:48.746Z,3.80
2018-09-29T23:40:24.013Z,3.90
2018-09-29T23:42:59.836Z,3.80
2018-09-29T23:45:36.092Z,3.70
2018-09-29T23:48:11.701Z,3.60
2018-09-29T23:50:47.159Z,3.60
2018-09-29T23:53:23.004Z,3.60
2018-09-29T23:55:58.248Z,3.60
2018-09-29T23:58:34.172Z,3.50
